Item Display Status Humidity-temperature Sensor

Elevation Above Sea Level: 3 m

 

Deployed Sensor

  • Serial Number: 20351110
  • NDBC Property Number: 43306
  • Start Date: 4/17/2020 (10:54:01 Z)
  • End Date: 3/19/2023 (03:00:00 Z)
Relative Humidity [%]     6 entries per hour
Showing data from 9/17/2020 (03:40:00 Z) to 9/16/2020 (00:00:01 Z)
Previous Next [ Day | 3-Days | 7-Days ]
First Last
Prev [ Day | 3-Days | 7-Days ] Next
First Last

Start Time:     :
End Time:     :     
Time (in GMT) :00 :50 :40 :30 :20 :10
Previous Next [ Day | 3-Days | 7-Days ]
First Last
Prev [ Day | 3-Days | 7-Days ] Next
First Last


123 => good data
MM => data is determined as missing
-- => data not received/configured
Back to Top Back to Top
9/17/2020 04:00 to 3:10 -- -- 89.69 88.19 89.03 89.95
9/17/2020 03:00 to 2:10 89.36 90.43 90.32 89.13 88.93 88.88
9/17/2020 02:00 to 1:10 88.31 88.27 88.78 90.18 93.16 96.78
9/17/2020 01:00 to 0:10 100.59 100.92 100.92 87.61 87.79 88.14
9/17/2020 00:00 to 23:10 86.99 89.03 89.07 89.09 88.91 88.49
9/16/2020 23:00 to 22:10 88.91 87.30 87.42 87.94 87.59 86.95
9/16/2020 22:00 to 21:10 87.86 88.37 87.63 87.98 86.99 90.24
9/16/2020 21:00 to 20:10 92.26 93.55 91.29 93.86 94.75 90.47
9/16/2020 20:00 to 19:10 91.23 89.03 88.86 87.92 87.40 89.54
9/16/2020 19:00 to 18:10 90.53 89.42 88.66 87.88 85.53 88.04
9/16/2020 18:00 to 17:10 89.28 89.26 89.77 89.77 87.24 87.40
9/16/2020 17:00 to 16:10 87.18 86.85 86.79 88.00 88.37 88.58
9/16/2020 16:00 to 15:10 90.22 90.65 91.07 91.54 92.32 92.34
9/16/2020 15:00 to 14:10 89.60 88.23 90.37 91.48 90.12 90.67
9/16/2020 14:00 to 13:10 90.43 89.83 88.14 88.21 87.98 88.58
9/16/2020 13:00 to 12:10 89.26 88.19 87.51 88.16 88.02 88.35
9/16/2020 12:00 to 11:10 88.39 88.33 88.49 88.21 87.77 87.92
9/16/2020 11:00 to 10:10 88.08 87.53 87.40 87.77 85.59 86.77
9/16/2020 10:00 to 9:10 87.49 87.40 87.03 87.16 89.46 89.36
9/16/2020 09:00 to 8:10 87.79 87.18 87.51 88.25 86.83 86.44
9/16/2020 08:00 to 7:10 85.84 86.42 87.98 88.10 87.01 86.83
9/16/2020 07:00 to 6:10 86.73 86.17 85.22 85.78 85.92 86.29
9/16/2020 06:00 to 5:10 86.15 86.27 86.44 85.70 85.59 83.99
9/16/2020 05:00 to 4:10 85.18 85.43 83.82 84.98 84.54 84.85
9/16/2020 04:00 to 3:10 84.20 84.03 83.85 83.93 85.68 83.66
9/16/2020 03:00 to 2:10 82.34 83.99 83.68 85.04 84.54 83.64
9/16/2020 02:00 to 1:10 83.37 82.94 83.54 83.70 83.19 82.24
9/16/2020 01:00 to 0:10 83.70 83.60 84.98 85.47 85.37 86.38

 

 

 

Air Temperature [°C]     6 entries per hour
Showing data from 11/1/2020 (10:30:00 Z) to 10/31/2020 (00:00:01 Z)
Previous Next [ Day | 3-Days | 7-Days ]
First Last
Prev [ Day | 3-Days | 7-Days ] Next
First Last

Start Time:     :
End Time:     :     
Time (in GMT) :00 :50 :40 :30 :20 :10
Previous Next [ Day | 3-Days | 7-Days ]
First Last
Prev [ Day | 3-Days | 7-Days ] Next
First Last


123 => good data
MM => data is determined as missing
-- => data not received/configured
Back to Top Back to Top
11/1/2020 11:00 to 10:10 -- -- -- 22.36 21.96 22.25
11/1/2020 10:00 to 9:10 22.54 22.42 22.06 21.90 22.38 22.92
11/1/2020 09:00 to 8:10 23.41 23.47 23.41 23.20 23.24 23.56
11/1/2020 08:00 to 7:10 23.43 23.36 23.60 23.47 23.51 23.74
11/1/2020 07:00 to 6:10 23.45 23.32 23.41 23.24 23.54 23.46
11/1/2020 06:00 to 5:10 23.64 23.40 23.35 23.64 23.39 23.36
11/1/2020 05:00 to 4:10 23.21 23.25 23.28 23.07 23.11 22.97
11/1/2020 04:00 to 3:10 22.86 23.37 23.53 23.30 23.46 23.29
11/1/2020 03:00 to 2:10 23.41 23.42 23.03 22.84 22.59 22.94
11/1/2020 02:00 to 1:10 22.84 22.71 22.90 22.74 22.71 22.71
11/1/2020 01:00 to 0:10 22.59 23.37 23.53 23.62 23.67 23.60
11/1/2020 00:00 to 23:10 23.44 23.57 23.81 23.53 23.36 23.50
10/31/2020 23:00 to 22:10 23.90 23.45 23.36 23.47 23.06 22.93
10/31/2020 22:00 to 21:10 23.25 23.19 23.58 23.40 23.32 23.50
10/31/2020 21:00 to 20:10 23.60 23.56 23.55 23.37 23.55 23.37
10/31/2020 20:00 to 19:10 23.27 23.32 23.26 22.92 22.65 22.69
10/31/2020 19:00 to 18:10 22.97 23.01 22.89 23.13 22.97 22.99
10/31/2020 18:00 to 17:10 22.95 23.46 23.47 23.38 23.27 23.17
10/31/2020 17:00 to 16:10 23.32 22.91 22.83 22.76 22.76 22.82
10/31/2020 16:00 to 15:10 22.53 22.33 22.37 22.72 22.59 22.40
10/31/2020 15:00 to 14:10 22.46 22.88 22.56 22.64 22.73 22.91
10/31/2020 14:00 to 13:10 22.83 22.82 22.59 22.40 22.38 22.53
10/31/2020 13:00 to 12:10 22.58 22.87 23.11 23.09 23.01 22.96
10/31/2020 12:00 to 11:10 23.27 22.97 22.76 22.78 22.95 23.10
10/31/2020 11:00 to 10:10 23.32 23.42 23.39 23.31 23.01 23.31
10/31/2020 10:00 to 9:10 23.50 23.28 23.21 23.25 23.29 23.77
10/31/2020 09:00 to 8:10 23.32 23.25 22.98 22.99 22.88 22.84
10/31/2020 08:00 to 7:10 23.12 23.56 23.52 23.64 23.22 23.40
10/31/2020 07:00 to 6:10 23.37 23.38 23.52 23.21 23.18 23.17
10/31/2020 06:00 to 5:10 23.36 23.54 23.60 23.26 23.36 23.37
10/31/2020 05:00 to 4:10 23.09 23.36 23.58 23.47 23.83 23.76
10/31/2020 04:00 to 3:10 23.74 23.29 23.46 23.40 23.50 23.35
10/31/2020 03:00 to 2:10 23.10 22.93 22.91 23.01 23.04 23.58
10/31/2020 02:00 to 1:10 23.28 23.11 23.32 22.99 22.98 23.56
10/31/2020 01:00 to 0:10 23.29 23.46 23.81 23.32 23.01 23.20